»·PEaware :: N198JT KGCN-KRIF

N198JT :: KGCN-KRIF

FLIGHT INFORMATION

Flight Status: Arrived
Operator: Privately registered:
United States
More flights under this callsign
Pilot: Jeremy T. (18871)
Aircraft: PIPER PA-24 COMMANCHE
(PA24)
More flights by this aircraft type
Origin: KGCN Grand Canyon Natl Park
United States
Destination: KRIF Richfield Mun
United States
More flights between these airports :: More routes between these airports
Route: BCE
File this flight plan on PilotEdge
Remarks:
Altitude:
(Current/Filed)
10,500ft
Speed:
(Current/Filed)
145kts
Departed: 05-Mar-19 04:40 PM
Arrived: 05-Mar-19 05:49 PM
Distance/Time
Traveled:
167nm/1:09
Distance/Time
To Go:
Arrived

Flight Plot

Page will automatically refresh every two minutes.

Flight plan parsing failed; only flown route is shown


Map Options




Map Legend


Flown Route
Filed Route
Departure Airport
Arrival Airport
Navaid (VOR, NDB)
Fix

Horizontal Profiles

Position Reports

Time Latitude Longitude Heading Altitude Ground
Speed
05-Mar-19 16:26 35.958462 -112.138483 220 6612ft 0kts
05-Mar-19 16:27 35.958460 -112.138485 220 6612ft 0kts
05-Mar-19 16:28 35.958459 -112.138486 220 6612ft 0kts
05-Mar-19 16:29 35.958457 -112.138488 220 6612ft 0kts
05-Mar-19 16:30 35.958456 -112.138489 220 6612ft 0kts
05-Mar-19 16:31 35.958454 -112.138491 220 6612ft 0kts
05-Mar-19 16:32 35.958453 -112.138492 220 6612ft 0kts
05-Mar-19 16:33 35.958394 -112.138643 271 6612ft 4kts
05-Mar-19 16:34 35.961152 -112.135908 40 6612ft 21kts
05-Mar-19 16:35 35.961151 -112.136224 256 6612ft 8kts
05-Mar-19 16:36 35.961165 -112.136426 302 6612ft 0kts
05-Mar-19 16:37 35.961167 -112.136429 302 6612ft 0kts
05-Mar-19 16:38 35.961239 -112.137586 219 6612ft 4kts
05-Mar-19 16:39 35.959137 -112.139795 221 6612ft 62kts
05-Mar-19 16:40 35.940909 -112.161127 255 7334ft 102kts
05-Mar-19 16:41 35.961857 -112.189276 308 8087ft 119kts
05-Mar-19 16:42 35.985371 -112.218561 309 8805ft 120kts
05-Mar-19 16:43 36.009369 -112.247815 308 9459ft 120kts
05-Mar-19 16:44 36.045823 -112.250678 15 9568ft 161kts
05-Mar-19 16:45 36.088711 -112.230039 17 9526ft 167kts
05-Mar-19 16:46 36.131904 -112.208939 19 9524ft 168kts
05-Mar-19 16:47 36.174949 -112.186281 18 9526ft 168kts
05-Mar-19 16:48 36.218226 -112.164081 19 9525ft 168kts
05-Mar-19 16:49 36.261518 -112.142079 17 9525ft 165kts
05-Mar-19 16:50 36.304419 -112.124180 18 9515ft 161kts
05-Mar-19 16:51 36.347748 -112.121503 348 9501ft 160kts
05-Mar-19 16:52 36.388165 -112.128087 358 10079ft 143kts
05-Mar-19 16:53 36.426942 -112.127657 358 10528ft 144kts
05-Mar-19 16:54 36.469812 -112.133958 352 10484ft 159kts
05-Mar-19 16:55 36.514114 -112.140573 353 10479ft 161kts
05-Mar-19 16:56 36.558963 -112.145324 352 10478ft 162kts
05-Mar-19 16:57 36.603643 -112.152587 351 10475ft 162kts
05-Mar-19 16:58 36.648664 -112.157902 353 10472ft 162kts
05-Mar-19 16:59 36.693594 -112.164313 351 10471ft 162kts
05-Mar-19 17:00 36.739240 -112.168475 347 10477ft 164kts
05-Mar-19 17:01 36.780002 -112.175344 342 10472ft 162kts
05-Mar-19 17:02 36.824890 -112.183269 346 10470ft 164kts
05-Mar-19 17:03 36.870397 -112.188446 346 10469ft 164kts
05-Mar-19 17:04 36.915808 -112.194885 345 10470ft 164kts
05-Mar-19 17:05 36.961429 -112.200826 346 10470ft 164kts
05-Mar-19 17:06 37.007130 -112.207441 345 10465ft 165kts
05-Mar-19 17:07 37.052797 -112.213552 346 10464ft 165kts
05-Mar-19 17:08 37.098691 -112.219845 345 10464ft 165kts
05-Mar-19 17:09 37.144458 -112.226309 346 10464ft 166kts
05-Mar-19 17:10 37.190493 -112.232442 346 10464ft 166kts
05-Mar-19 17:11 37.236506 -112.238958 345 10465ft 166kts
05-Mar-19 17:12 37.282657 -112.245249 345 10467ft 166kts
05-Mar-19 17:13 37.328714 -112.251760 345 10469ft 166kts
05-Mar-19 17:14 37.374815 -112.258083 346 10470ft 167kts
05-Mar-19 17:15 37.421076 -112.264499 345 10474ft 167kts
05-Mar-19 17:16 37.466464 -112.273439 352 10478ft 162kts
05-Mar-19 17:17 37.511159 -112.277363 355 10481ft 160kts
05-Mar-19 17:18 37.555827 -112.282217 352 10482ft 162kts
05-Mar-19 17:20 37.600101 -112.289876 352 10485ft 159kts
05-Mar-19 17:21 37.644075 -112.295858 353 10492ft 159kts
05-Mar-19 17:22 37.688109 -112.299910 340 10481ft 159kts
05-Mar-19 17:23 37.728190 -112.323141 334 10485ft 161kts
05-Mar-19 17:24 37.771526 -112.339498 334 10488ft 163kts
05-Mar-19 17:25 37.812443 -112.362327 325 10482ft 159kts
05-Mar-19 17:26 37.852446 -112.386904 326 10471ft 160kts
05-Mar-19 17:27 37.897053 -112.390768 8 10467ft 174kts
05-Mar-19 17:28 37.944476 -112.376016 8 10456ft 175kts
05-Mar-19 17:29 37.991805 -112.361097 9 10449ft 175kts
05-Mar-19 17:30 38.039083 -112.346569 7 10445ft 175kts
05-Mar-19 17:31 38.086604 -112.332436 8 10439ft 175kts
05-Mar-19 17:32 38.134121 -112.318283 7 10433ft 175kts
05-Mar-19 17:33 38.181537 -112.304625 7 10426ft 175kts
05-Mar-19 17:34 38.229100 -112.290717 7 10421ft 175kts
05-Mar-19 17:35 38.276778 -112.277422 9 10421ft 173kts
05-Mar-19 17:36 38.323584 -112.266175 6 10410ft 173kts
05-Mar-19 17:37 38.370514 -112.256401 5 10401ft 169kts
05-Mar-19 17:38 38.415728 -112.235986 33 10405ft 178kts
05-Mar-19 17:39 38.456060 -112.199005 18 10394ft 177kts
05-Mar-19 17:39 38.494729 -112.184442 11 10209ft 176kts
05-Mar-19 17:41 38.552712 -112.164636 14 8932ft 187kts
05-Mar-19 17:42 38.602063 -112.147737 17 7968ft 181kts
05-Mar-19 17:42 38.637253 -112.134024 15 7500ft 137kts
05-Mar-19 17:43 38.672330 -112.119215 21 6733ft 128kts
05-Mar-19 17:45 38.709050 -112.098178 32 6271ft 123kts
05-Mar-19 17:45 38.732827 -112.077848 32 6163ft 116kts
05-Mar-19 17:46 38.761659 -112.063782 324 5753ft 117kts
05-Mar-19 17:47 38.753118 -112.089128 203 5591ft 89kts
05-Mar-19 17:48 38.738145 -112.097903 205 5304ft 25kts
05-Mar-19 17:49 38.735436 -112.099599 34 5304ft 6kts
05-Mar-19 17:50 38.738887 -112.097492 25 5304ft 17kts
05-Mar-19 17:51 38.743505 -112.094757 14 5304ft 15kts
05-Mar-19 17:52 38.743391 -112.097629 273 5304ft 1kts
05-Mar-19 17:53 38.743391 -112.097647 270 5304ft 0kts

Navigation Log

Ident Type
Flight plan parsing failed, navigation log unavailable